メインページ
METAR-TAF:

METAR-TAF

空港 :

エルシリオ・ルス国際空港

フロリアノーポリス, サンタカタリーナ州, ブラジル

緯度: 27-40S, 経度: 048-33W, 海抜: 5m

現時点の気象観測

当レポートは10分前の04:00(UTC)に作成
北/北西の風 6kt
気温 23°C
湿度 89%
気圧 1012 hPa
視程10km以上
1,500メートル以下は雲なし、積乱雲なし

METAR: SBFL 250400Z 33006KT CAVOK 23/21 Q1012

時間: 01:10 (04:10 UTC)

予報

当レポートは5時間40分前の22:30(UTC)に作成
予報は25日の 00時(UTC)から 25日の 24時(UTC)まで有効
の風 9kt
視程10km以上
高度3000ftの雲は散在している

TAF: SBFL 242230Z 2500/2524 01009KT 9999 SCT030 TN21/2508Z TX29/2518Z RMK PEB

4,000以上の空港の気象観測と天気予報(METAR報とTAF報)

利用可能な観測所は地図上に黄色い丸と赤い丸で示す。

丸の上にカーソルを重ねると観測所名を参照できる。

次にクリックすると気象観測と天気予報を参照できる。

マップの切り替え:黒色「×」印の緑ボタンをクリックして拡大、「-」印の緑ボタンをクリックして縮小、緑色の三角印をクリックして隣りの地図に切り替え


METAR-TAF: